Time;durP1;ratioP1;P1;durP2;ratioP2;P2;SDS_P1;SDS_P2;PMS_P1;PMS_P2;Temp;Humidity;BMP_temperature;BMP_pressure;BME280_temperature;BME280_humidity;BME280_pressure;Samples;Min_cycle;Max_cycle;Signal;HPM_P1;HPM_P2
2022/01/10 09:33:06;;;;;;;;;0.00;0.00;;;;;14.33;68.07;101924.50;5103380;27;1699622;-87
2022/01/10 09:35:32;;;;;;;;;2.50;0.50;;;;;14.56;67.46;101930.19;5110133;27;45427;-86
2022/01/10 09:37:57;;;;;;;;;2.50;2.00;;;;;14.73;67.00;101932.59;5137722;27;45578;-86
2022/01/10 09:40:23;;;;;;;;;15.00;8.25;;;;;14.90;66.49;101937.81;5115422;27;45549;-87
2022/01/10 09:42:48;;;;;;;;;7.00;4.50;;;;;15.01;65.79;101934.41;5115375;27;53866;-86
2022/01/10 09:45:14;;;;;;;;;7.25;4.25;;;;;15.12;65.30;101926.53;5104691;27;45580;-87
2022/01/10 09:47:39;;;;;;;;;8.75;4.00;;;;;15.25;64.87;101936.41;5127755;27;45765;-87
2022/01/10 09:50:06;;;;;;;;;7.25;2.75;;;;;15.48;64.66;101966.06;5124284;27;45833;-86
2022/01/10 09:52:32;;;;;;;;;5.25;2.25;;;;;15.53;64.62;101955.88;5130709;27;45430;-88
2022/01/10 09:54:57;;;;;;;;;4.25;3.00;;;;;15.68;63.77;101969.16;5103086;27;45446;-89
2022/01/10 09:57:23;;;;;;;;;3.25;2.25;;;;;15.86;63.66;101987.59;5131612;27;45408;-90
2022/01/10 09:59:49;;;;;;;;;2.25;1.25;;;;;15.74;63.57;101958.03;5122909;27;48927;-91
2022/01/10 10:02:15;;;;;;;;;0.50;0.50;;;;;16.13;63.09;102008.03;5118470;27;45737;-90
2022/01/10 10:04:41;;;;;;;;;1.60;1.60;;;;;16.12;63.23;101998.31;5116340;27;45572;-90
2022/01/10 10:07:06;;;;;;;;;1.40;1.00;;;;;16.21;62.74;102000.31;5110400;27;46884;-89
2022/01/10 10:09:32;;;;;;;;;6.25;1.00;;;;;16.32;62.62;102015.59;5110408;27;45519;-91
2022/01/10 10:11:58;;;;;;;;;6.40;1.20;;;;;16.35;62.24;102009.19;5111589;27;47329;-89
2022/01/10 10:14:23;;;;;;;;;1.50;1.00;;;;;16.44;62.22;102013.88;5130170;27;46734;-91
2022/01/10 10:16:51;;;;;;;;;3.50;1.00;;;;;16.26;62.16;101974.06;5120721;27;45443;-88
2022/01/10 10:19:21;;;;;;;;;2.20;2.20;;;;;16.57;61.76;102013.00;5132138;27;45664;-91
2022/01/10 10:21:49;;;;;;;;;1.00;1.00;;;;;16.51;61.48;101994.69;5093606;27;47255;-91
2022/01/10 10:24:15;;;;;;;;;2.20;1.00;;;;;16.92;61.39;102041.69;5122031;27;46278;-91
2022/01/10 10:26:41;;;;;;;;;4.00;1.75;;;;;16.88;61.07;102028.63;5108424;27;45500;-91
2022/01/10 10:29:06;;;;;;;;;3.25;1.00;;;;;16.81;61.08;102009.47;5095663;27;45552;-90
2022/01/10 10:31:36;;;;;;;;;2.50;1.50;;;;;17.01;60.62;102042.00;5128025;27;45816;-92
2022/01/10 10:34:04;;;;;;;;;2.20;2.00;;;;;17.06;60.60;102039.84;5116023;27;45370;-90
2022/01/10 10:36:33;;;;;;;;;1.00;1.00;;;;;17.01;60.20;102017.88;5092830;27;46203;-91
2022/01/10 10:39:00;;;;;;;;;1.40;1.20;;;;;17.25;59.79;102035.78;5107336;27;45844;-91
2022/01/10 10:41:25;;;;;;;;;1.00;0.00;;;;;17.19;60.07;102028.19;5122288;27;47128;-91
2022/01/10 10:43:51;;;;;;;;;4.25;2.00;;;;;17.19;59.81;102012.97;5086100;27;45597;-92
2022/01/10 10:46:17;;;;;;;;;2.00;2.00;;;;;17.27;59.87;102020.44;5102064;27;45554;-92
2022/01/10 10:48:45;;;;;;;;;4.60;1.40;;;;;17.42;59.41;102044.38;5081616;27;45472;-91
2022/01/10 10:51:11;;;;;;;;;1.60;1.60;;;;;17.35;59.31;102033.28;5097365;27;47064;-92
2022/01/10 10:53:36;;;;;;;;;1.00;1.00;;;;;17.45;59.05;102038.78;5095796;27;45359;-91
2022/01/10 10:56:04;;;;;;;;;1.75;1.00;;;;;17.65;59.31;102063.25;5112711;27;45934;-92
2022/01/10 10:58:30;;;;;;;;;2.60;0.40;;;;;17.45;58.98;102028.91;5086897;27;45609;-91
2022/01/10 11:00:56;;;;;;;;;2.00;1.80;;;;;17.56;58.89;102040.66;5077887;27;47294;-92
2022/01/10 11:03:22;;;;;;;;;1.25;1.25;;;;;17.54;58.86;102026.50;5086438;27;45586;-90
2022/01/10 11:05:48;;;;;;;;;3.00;1.00;;;;;17.67;58.53;102046.03;5090706;27;45513;-91
2022/01/10 11:08:14;;;;;;;;;2.00;1.00;;;;;17.76;58.66;102052.53;5099189;27;45491;-90
2022/01/10 11:10:40;;;;;;;;;3.50;0.50;;;;;17.73;58.32;102042.03;5081256;27;47017;-93
2022/01/10 11:13:07;;;;;;;;;2.00;0.00;;;;;17.96;58.57;102078.78;5103603;27;45462;-93
2022/01/10 11:15:38;;;;;;;;;1.00;1.00;;;;;17.78;58.27;102044.38;5096795;27;45389;-91
2022/01/10 11:18:03;;;;;;;;;2.00;1.00;;;;;17.71;58.14;102032.38;5083375;27;45462;-89
2022/01/10 11:20:29;;;;;;;;;1.00;1.00;;;;;17.82;58.12;102050.34;5079878;27;47214;-90
2022/01/10 11:22:56;;;;;;;;;2.25;1.00;;;;;17.90;58.01;102054.13;5092076;27;45609;-90
2022/01/10 11:25:23;;;;;;;;;0.00;0.00;;;;;18.10;57.82;102097.38;5109518;27;45444;-90
2022/01/10 11:27:49;;;;;;;;;2.40;1.00;;;;;17.81;57.76;102044.13;5106348;27;45749;-89
2022/01/10 11:30:32;;;;;;;;;2.00;2.00;;;;;18.14;57.84;102089.94;5099877;27;45492;-90
2022/01/10 11:33:03;;;;;;;;;1.00;1.00;;;;;18.11;57.45;102082.13;5084754;27;45421;-90
2022/01/10 11:35:39;;;;;;;;;2.00;2.00;;;;;18.20;57.64;102099.34;5109364;27;45465;-90
2022/01/10 11:38:15;;;;;;;;;2.40;1.00;;;;;17.93;57.74;102052.22;5096485;27;45553;-91
2022/01/10 11:40:41;;;;;;;;;1.00;1.00;;;;;18.07;57.33;102075.28;5115306;27;47309;-93
2022/01/10 11:43:07;;;;;;;;;1.00;1.00;;;;;18.23;57.16;102091.94;5091670;27;45625;-87
2022/01/10 11:45:32;;;;;;;;;2.00;1.00;;;;;18.08;57.26;102066.25;5094534;27;45546;-88
2022/01/10 11:48:09;;;;;;;;;3.00;2.50;;;;;18.31;57.25;102094.00;5087035;27;45704;-88
2022/01/10 11:50:37;;;;;;;;;2.00;2.00;;;;;18.22;57.21;102084.84;5125613;27;46451;-87
2022/01/10 11:53:03;;;;;;;;;1.00;1.00;;;;;18.33;57.40;102101.97;5076678;27;45738;-88
2022/01/10 11:55:51;;;;;;;;;1.80;1.80;;;;;18.37;57.21;102103.41;5075108;27;45561;-89
2022/01/10 11:58:18;;;;;;;;;3.00;2.00;;;;;18.18;56.76;102078.00;5103600;27;45739;-86
2022/01/10 12:00:44;;;;;;;;;2.00;2.00;;;;;18.24;56.86;102093.63;5115497;27;45566;-85
2022/01/10 12:03:09;;;;;;;;;2.00;2.00;;;;;18.19;56.77;102074.31;5116330;27;45686;-88
2022/01/10 12:05:35;;;;;;;;;3.75;3.00;;;;;18.17;56.59;102078.97;5074088;27;45486;-88
2022/01/10 12:08:04;;;;;;;;;1.25;1.00;;;;;18.07;56.59;102059.19;5090260;27;46828;-87
2022/01/10 12:10:30;;;;;;;;;3.00;2.20;;;;;18.23;56.70;102086.56;5109835;27;45537;-87
2022/01/10 12:13:05;;;;;;;;;3.80;1.80;;;;;18.33;56.70;102096.59;5107062;27;45514;-87
2022/01/10 12:15:34;;;;;;;;;2.40;2.40;;;;;18.28;56.65;102088.03;5100127;27;45558;-87
2022/01/10 12:17:59;;;;;;;;;1.60;1.60;;;;;18.33;56.54;102105.50;5093410;27;45606;-87
2022/01/10 12:20:25;;;;;;;;;3.00;1.75;;;;;18.29;56.07;102105.84;5080911;27;46378;-88
2022/01/10 12:22:54;;;;;;;;;2.00;2.00;;;;;18.26;56.43;102098.91;5084179;27;45655;-88
2022/01/10 12:25:20;;;;;;;;;0.40;0.40;;;;;18.34;56.35;102114.41;5081539;27;45806;-87
2022/01/10 12:27:46;;;;;;;;;3.25;1.25;;;;;18.29;56.36;102103.19;5087860;27;45594;-87
2022/01/10 12:30:12;;;;;;;;;1.60;1.60;;;;;18.26;56.11;102106.97;5095111;27;48200;-87
2022/01/10 12:32:38;;;;;;;;;1.25;1.25;;;;;18.10;56.28;102072.38;5090933;27;46024;-89
2022/01/10 12:35:04;;;;;;;;;0.80;0.80;;;;;18.31;56.16;102104.75;5098216;27;45539;-86
2022/01/10 12:37:30;;;;;;;;;1.00;1.00;;;;;18.15;55.88;102083.59;5103170;27;45442;-88
2022/01/10 12:39:56;;;;;;;;;0.75;0.75;;;;;18.37;56.02;102124.06;5081255;27;46232;-88
2022/01/10 12:42:25;;;;;;;;;0.40;0.40;;;;;18.37;56.15;102122.22;5083211;27;45591;-89
2022/01/10 12:44:51;;;;;;;;;2.00;1.40;;;;;18.35;55.82;102110.75;5087033;27;45611;-88
2022/01/10 12:47:16;;;;;;;;;0.50;0.50;;;;;18.24;55.92;102092.81;5075628;27;45687;-87
2022/01/10 12:49:44;;;;;;;;;0.00;0.00;;;;;18.37;56.09;102124.91;5110426;27;45728;-88
2022/01/10 12:52:10;;;;;;;;;1.00;1.00;;;;;18.33;55.88;102123.47;5117515;27;45613;-88
2022/01/10 12:54:35;;;;;;;;;1.50;1.50;;;;;18.45;56.03;102138.59;5075310;27;45526;-88
2022/01/10 12:57:01;;;;;;;;;0.75;0.75;;;;;18.32;55.69;102117.22;5095408;27;45542;-88
2022/01/10 12:59:28;;;;;;;;;1.50;1.00;;;;;18.28;55.69;102114.88;5106804;27;54011;-88
2022/01/10 13:01:55;;;;;;;;;2.00;0.00;;;;;18.10;55.67;102080.44;5088446;27;45494;-87
2022/01/10 13:04:22;;;;;;;;;0.40;0.40;;;;;18.21;55.53;102099.28;5123102;27;45342;-87
2022/01/10 13:06:48;;;;;;;;;0.20;0.20;;;;;18.33;55.52;102118.09;5105489;27;45658;-88
2022/01/10 13:09:13;;;;;;;;;2.00;1.50;;;;;18.29;55.49;102121.97;5090446;27;47122;-88
2022/01/10 13:11:45;;;;;;;;;3.25;1.00;;;;;18.16;55.64;102093.34;5101868;27;45375;-88
2022/01/10 13:14:12;;;;;;;;;0.00;0.00;;;;;18.18;55.72;102110.22;5088368;27;45539;-88
2022/01/10 13:16:38;;;;;;;;;0.60;0.60;;;;;18.20;55.56;102102.91;5092621;27;46238;-88
2022/01/10 13:19:06;;;;;;;;;1.00;1.00;;;;;18.28;55.53;102125.63;5080009;27;47779;-89
2022/01/10 13:21:36;;;;;;;;;1.00;1.00;;;;;18.44;55.42;102155.72;5075605;27;45411;-88
2022/01/10 13:24:11;;;;;;;;;1.00;1.00;;;;;18.27;55.63;102132.84;5111374;27;46038;-87
2022/01/10 13:26:53;;;;;;;;;1.60;0.00;;;;;18.16;55.66;102112.16;5090884;27;45754;-87
2022/01/10 13:29:44;;;;;;;;;1.00;1.00;;;;;18.45;55.90;102162.78;5112878;27;46036;-88
2022/01/10 13:32:13;;;;;;;;;1.40;1.00;;;;;18.46;55.49;102158.25;5098765;27;45550;-89
2022/01/10 13:34:38;;;;;;;;;1.00;1.00;;;;;18.40;55.64;102151.53;5097659;27;46220;-88
2022/01/10 13:37:04;;;;;;;;;1.00;1.00;;;;;18.43;55.73;102156.69;5113798;27;45607;-87
2022/01/10 13:39:30;;;;;;;;;1.25;1.00;;;;;18.28;55.99;102131.00;5070460;27;48583;-88
2022/01/10 13:41:59;;;;;;;;;3.00;1.20;;;;;18.38;55.72;102153.50;5096534;27;45319;-96
2022/01/10 13:44:24;;;;;;;;;1.00;1.00;;;;;18.39;56.22;102160.56;5086627;27;45650;-91
2022/01/10 13:47:06;;;;;;;;;1.00;1.00;;;;;18.38;56.52;102156.19;5093105;27;45596;-89
2022/01/10 13:49:33;;;;;;;;;1.60;1.60;;;;;18.37;56.45;102149.09;5104874;27;47930;-88
2022/01/10 13:52:13;;;;;;;;;0.00;0.00;;;;;18.45;56.59;102165.47;5088783;27;46283;-88
2022/01/10 13:54:38;;;;;;;;;1.20;1.00;;;;;18.42;56.35;102163.03;5094945;27;45448;-88
2022/01/10 13:57:38;;;;;;;;;1.00;1.00;;;;;18.48;56.45;102168.88;5077154;27;45676;-89
2022/01/10 14:00:14;;;;;;;;;0.40;0.40;;;;;18.48;56.46;102168.88;5091659;27;45665;-89
2022/01/10 14:02:40;;;;;;;;;1.20;1.00;;;;;18.46;56.23;102164.50;5052611;27;45761;-89
2022/01/10 14:05:27;;;;;;;;;0.20;0.20;;;;;18.42;56.63;102157.66;5050849;27;45459;-88
2022/01/10 14:07:54;;;;;;;;;0.40;0.40;;;;;18.46;56.40;102172.56;5047148;27;45586;-89
2022/01/10 14:10:21;;;;;;;;;1.00;1.00;;;;;18.42;56.55;102164.84;5055253;27;45774;-88
2022/01/10 14:12:46;;;;;;;;;0.00;0.00;;;;;18.35;56.53;102164.50;5077311;27;45551;-88
2022/01/10 14:15:11;;;;;;;;;1.00;1.00;;;;;18.32;56.49;102153.97;5053389;27;45451;-89
2022/01/10 14:17:37;;;;;;;;;1.00;1.00;;;;;18.32;56.59;102151.28;5054529;27;46000;-89
2022/01/10 14:20:04;;;;;;;;;1.00;1.00;;;;;18.35;56.68;102156.44;5057746;27;46410;-87
2022/01/10 14:22:30;;;;;;;;;2.00;2.00;;;;;18.39;56.13;102171.31;5057459;27;45480;-88
2022/01/10 14:24:55;;;;;;;;;3.25;0.75;;;;;18.35;56.50;102172.53;5077795;27;45396;-88
2022/01/10 14:27:21;;;;;;;;;3.00;2.00;;;;;18.18;56.18;102142.47;5057987;27;45472;-88
2022/01/10 14:29:46;;;;;;;;;0.25;0.25;;;;;18.36;56.33;102176.94;5080697;27;49077;-88
2022/01/10 14:32:13;;;;;;;;;1.00;1.00;;;;;18.25;56.28;102164.34;5053409;27;45475;-88
2022/01/10 14:34:39;;;;;;;;;1.40;0.00;;;;;18.29;56.34;102178.41;5079797;27;46230;-88
2022/01/10 14:37:04;;;;;;;;;1.25;1.25;;;;;18.30;56.09;102172.88;5097162;27;45608;-88
2022/01/10 14:39:30;;;;;;;;;3.25;1.00;;;;;18.34;56.21;102195.88;5100274;27;47686;-89
2022/01/10 14:41:57;;;;;;;;;2.00;0.25;;;;;18.45;56.02;102219.22;5098897;27;45325;-88
2022/01/10 14:44:22;;;;;;;;;1.00;1.00;;;;;18.35;56.30;102196.72;5079493;27;45397;-88
2022/01/10 14:46:47;;;;;;;;;2.25;1.00;;;;;18.26;56.34;102197.44;5083138;27;45254;-88
2022/01/10 14:49:13;;;;;;;;;2.00;1.00;;;;;18.15;56.06;102180.28;5113129;27;52834;-89
2022/01/10 14:51:38;;;;;;;;;1.00;1.00;;;;;18.22;56.03;102203.03;5115845;27;45390;-89
2022/01/10 14:54:04;;;;;;;;;1.00;1.00;;;;;18.42;55.93;102235.56;5078536;27;45358;-88
2022/01/10 14:56:29;;;;;;;;;1.00;1.00;;;;;18.48;56.15;102250.34;5116272;27;45423;-88
2022/01/10 14:58:55;;;;;;;;;2.00;2.00;;;;;18.47;55.86;102254.03;5107341;27;45743;-92
2022/01/10 15:01:20;;;;;;;;;1.50;1.50;;;;;18.37;55.97;102232.38;5093378;27;45571;-89
2022/01/10 15:03:46;;;;;;;;;3.00;3.00;;;;;18.34;55.47;102238.00;5096065;27;45405;-88
2022/01/10 15:06:11;;;;;;;;;2.00;2.00;;;;;18.44;55.71;102249.75;5112779;27;45439;-88
2022/01/10 15:08:39;;;;;;;;;3.00;3.00;;;;;18.42;55.72;102246.31;5073822;27;47480;-89
2022/01/10 15:11:07;;;;;;;;;5.20;3.20;;;;;18.39;55.92;102229.59;5111566;27;45530;-88
2022/01/10 15:13:33;;;;;;;;;1.00;0.00;;;;;18.29;55.66;102230.28;5109045;27;45816;-88
2022/01/10 15:15:59;;;;;;;;;2.00;2.00;;;;;18.18;55.59;102206.91;5104266;27;45453;-88
2022/01/10 15:18:24;;;;;;;;;1.00;1.00;;;;;18.34;55.32;102238.00;5087093;27;47994;-89
2022/01/10 15:20:50;;;;;;;;;2.00;1.50;;;;;18.15;55.74;102215.22;5100309;27;45570;-89
2022/01/10 15:23:15;;;;;;;;;4.00;2.00;;;;;18.11;55.41;102213.72;5090643;27;45552;-89
2022/01/10 15:25:41;;;;;;;;;2.00;2.00;;;;;18.29;55.52;102246.41;5105622;27;45458;-89
2022/01/10 15:28:06;;;;;;;;;2.00;2.00;;;;;18.18;55.71;102230.22;5085844;27;46342;-89
2022/01/10 15:30:33;;;;;;;;;4.00;2.75;;;;;18.31;55.51;102249.84;5109753;27;45351;-90
2022/01/10 15:32:58;;;;;;;;;5.60;3.00;;;;;18.15;55.64;102233.16;5082690;27;45423;-89
2022/01/10 15:35:24;;;;;;;;;3.25;3.25;;;;;18.24;55.41;102243.22;5122668;27;45675;-89
2022/01/10 15:37:51;;;;;;;;;3.25;3.25;;;;;18.05;55.49;102224.91;5072794;27;47278;-89
2022/01/10 15:40:16;;;;;;;;;3.00;3.00;;;;;18.40;55.63;102283.19;5086550;27;45622;-88
2022/01/10 15:42:42;;;;;;;;;4.25;3.00;;;;;18.28;55.41;102266.19;5093760;27;45566;-89
2022/01/10 15:45:09;;;;;;;;;3.25;3.00;;;;;18.24;55.58;102254.81;5094755;27;45445;-90
2022/01/10 15:47:34;;;;;;;;;2.40;2.40;;;;;18.29;55.47;102270.59;5088479;27;47280;-89
2022/01/10 15:50:01;;;;;;;;;3.25;3.25;;;;;18.17;55.63;102248.16;5086884;27;45550;-89
2022/01/10 15:52:27;;;;;;;;;3.00;3.00;;;;;18.15;55.55;102242.06;5093980;27;45645;-89
2022/01/10 15:54:52;;;;;;;;;3.00;2.50;;;;;18.12;55.38;102244.97;5120155;27;45555;-88
2022/01/10 15:57:18;;;;;;;;;2.50;2.50;;;;;18.28;55.68;102265.31;5083812;27;45700;-87
2022/01/10 15:59:43;;;;;;;;;2.50;2.50;;;;;18.36;55.64;102287.09;5086716;27;45409;-88
2022/01/10 16:02:11;;;;;;;;;1.50;1.50;;;;;18.43;55.51;102298.22;5097326;27;45641;-88
2022/01/10 16:04:36;;;;;;;;;1.20;1.20;;;;;18.20;55.67;102268.56;5119106;27;45548;-88
2022/01/10 16:07:03;;;;;;;;;3.00;3.00;;;;;18.40;55.63;102298.47;5109182;27;46352;-87
2022/01/10 16:09:28;;;;;;;;;3.60;2.60;;;;;18.37;55.24;102290.63;5088717;27;45715;-88
2022/01/10 16:11:57;;;;;;;;;2.50;2.50;;;;;18.33;55.45;102292.72;5087608;27;45516;-88
2022/01/10 16:14:22;;;;;;;;;3.00;3.00;;;;;18.10;55.21;102255.81;5106715;27;45551;-89
2022/01/10 16:16:48;;;;;;;;;3.00;3.00;;;;;18.36;55.30;102303.19;5104314;27;46942;-88
2022/01/10 16:19:15;;;;;;;;;2.00;2.00;;;;;18.24;55.01;102287.03;5111380;27;45897;-89
2022/01/10 16:21:40;;;;;;;;;3.00;3.00;;;;;18.32;55.19;102316.03;5081041;27;45492;-91
2022/01/10 16:24:06;;;;;;;;;3.75;3.25;;;;;18.16;55.28;102283.22;5095520;27;45608;-88
2022/01/10 16:26:31;;;;;;;;;6.25;5.00;;;;;18.36;54.96;102311.25;5097223;27;47211;-88
2022/01/10 16:28:57;;;;;;;;;5.25;5.00;;;;;18.18;55.35;102297.38;5092019;27;46105;-89
2022/01/10 16:31:22;;;;;;;;;1.75;1.75;;;;;18.22;55.26;102315.84;5088841;27;45568;-88
2022/01/10 16:33:51;;;;;;;;;3.25;3.25;;;;;18.32;55.16;102331.28;5083753;27;50906;-88
2022/01/10 16:36:16;;;;;;;;;4.00;3.00;;;;;18.37;55.50;102333.63;5099459;27;46683;-88
2022/01/10 16:38:41;;;;;;;;;4.00;4.00;;;;;18.26;55.50;102323.69;5102788;27;46896;-88
2022/01/10 16:41:14;;;;;;;;;3.25;3.00;;;;;18.11;55.25;102307.72;5075698;27;45599;-88
2022/01/10 16:43:39;;;;;;;;;4.00;4.00;;;;;18.12;55.18;102313.00;5113399;27;45419;-87
2022/01/10 16:46:05;;;;;;;;;6.25;6.25;;;;;18.31;55.10;102351.06;5093260;27;45357;-87
2022/01/10 16:48:32;;;;;;;;;5.00;4.00;;;;;18.28;55.19;102353.97;5112273;27;46275;-88
2022/01/10 16:50:59;;;;;;;;;8.60;4.80;;;;;18.27;54.95;102360.34;5083263;27;45521;-88
2022/01/10 16:53:24;;;;;;;;;4.20;4.20;;;;;18.35;55.01;102379.44;5108972;27;45556;-87
2022/01/10 16:55:50;;;;;;;;;6.50;5.00;;;;;18.19;54.89;102358.16;5092596;27;47958;-88
2022/01/10 16:58:15;;;;;;;;;4.25;3.25;;;;;18.27;55.12;102371.09;5098227;27;48051;-87
2022/01/10 17:00:41;;;;;;;;;4.00;3.50;;;;;18.25;55.44;102368.50;5074032;27;47520;-87
2022/01/10 17:03:07;;;;;;;;;5.25;2.75;;;;;18.32;55.38;102377.81;5081897;27;45552;-87
2022/01/10 17:05:35;;;;;;;;;5.00;5.00;;;;;18.30;55.16;102381.59;5099193;27;45526;-87
2022/01/10 17:08:05;;;;;;;;;4.00;4.00;;;;;18.23;55.28;102373.13;5113969;27;45641;-87
2022/01/10 17:10:30;;;;;;;;;5.00;5.00;;;;;18.09;54.98;102358.88;5087710;27;45634;-87
2022/01/10 17:12:56;;;;;;;;;3.25;3.25;;;;;18.37;55.28;102404.34;5118056;27;46751;-88
2022/01/10 17:15:21;;;;;;;;;4.25;4.25;;;;;18.06;55.01;102350.19;5083087;27;50448;-87
2022/01/10 17:17:47;;;;;;;;;4.00;4.00;;;;;18.36;55.50;102405.28;5098108;27;45553;-87
2022/01/10 17:20:12;;;;;;;;;5.25;5.25;;;;;18.08;54.93;102356.28;5110679;27;45843;-88
2022/01/10 17:22:39;;;;;;;;;4.00;4.00;;;;;18.08;55.13;102361.66;5111597;27;45583;-87
2022/01/10 17:25:09;;;;;;;;;5.20;5.20;;;;;18.30;54.87;102403.09;5087166;27;48083;-88
2022/01/10 17:27:36;;;;;;;;;6.20;6.20;;;;;18.11;54.77;102377.53;5110957;27;45531;-88
2022/01/10 17:30:02;;;;;;;;;15.80;12.40;;;;;18.31;55.11;102426.28;5075956;27;45449;-88
2022/01/10 17:32:27;;;;;;;;;11.25;9.75;;;;;18.07;54.97;102392.19;5093713;27;45569;-89
2022/01/10 17:34:53;;;;;;;;;10.50;9.25;;;;;18.09;55.17;102401.84;5094776;27;51243;-88
2022/01/10 17:37:18;;;;;;;;;8.25;7.00;;;;;18.16;54.80;102429.09;5089313;27;45804;-88
2022/01/10 17:39:43;;;;;;;;;6.00;6.00;;;;;18.13;55.03;102429.31;5095417;27;45555;-88
2022/01/10 17:42:09;;;;;;;;;4.00;4.00;;;;;18.14;55.28;102431.03;5088572;27;45663;-88
2022/01/10 17:44:34;;;;;;;;;6.00;4.75;;;;;17.97;54.89;102411.66;5093450;27;47296;-88
2022/01/10 17:47:00;;;;;;;;;6.00;5.00;;;;;18.17;55.09;102446.06;5106953;27;45610;-88
2022/01/10 17:49:28;;;;;;;;;4.25;4.25;;;;;17.98;54.90;102431.31;5103177;27;45346;-88
2022/01/10 17:52:00;;;;;;;;;6.20;4.80;;;;;17.88;54.93;102417.69;5086312;27;46498;-88
2022/01/10 17:54:26;;;;;;;;;7.80;6.80;;;;;17.86;55.24;102422.31;5115848;27;47697;-86
2022/01/10 17:56:51;;;;;;;;;5.00;5.00;;;;;18.08;54.98;102463.72;5135252;27;45390;-87
2022/01/10 17:59:16;;;;;;;;;5.00;4.50;;;;;17.91;54.90;102442.47;5108849;27;46912;-88
2022/01/10 18:01:43;;;;;;;;;9.00;6.25;;;;;18.04;54.83;102467.59;5075903;27;45849;-87
2022/01/10 18:04:08;;;;;;;;;10.80;6.00;;;;;17.80;54.93;102445.94;5109320;27;46583;-87
2022/01/10 18:06:33;;;;;;;;;5.50;4.75;;;;;17.82;54.98;102439.59;5084905;27;45835;-87
2022/01/10 18:08:59;;;;;;;;;8.00;8.00;;;;;18.01;55.14;102488.31;5117722;27;45346;-87
2022/01/10 18:11:24;;;;;;;;;7.50;5.50;;;;;17.99;55.11;102498.31;5091764;27;45858;-87
2022/01/10 18:13:50;;;;;;;;;6.25;6.25;;;;;17.94;54.86;102495.09;5110386;27;45724;-86
2022/01/10 18:16:15;;;;;;;;;5.00;5.00;;;;;17.96;54.97;102511.97;5107141;27;45484;-87
2022/01/10 18:18:41;;;;;;;;;6.00;6.00;;;;;17.73;55.02;102471.50;5124711;27;45431;-87
2022/01/10 18:21:06;;;;;;;;;5.25;5.25;;;;;17.89;55.10;102508.00;5097580;27;45560;-88
2022/01/10 18:23:32;;;;;;;;;5.00;4.00;;;;;17.75;55.23;102490.19;5104971;27;45887;-87
2022/01/10 18:25:57;;;;;;;;;6.25;6.25;;;;;17.65;55.13;102487.28;5106144;27;47602;-86
2022/01/10 18:28:23;;;;;;;;;6.25;6.25;;;;;17.85;54.96;102523.47;5095059;27;45426;-86
2022/01/10 18:30:48;;;;;;;;;7.00;5.75;;;;;17.85;55.02;102533.34;5088129;27;45521;-86
2022/01/10 18:33:14;;;;;;;;;5.50;5.50;;;;;17.61;54.93;102496.53;5065452;27;47886;-87
2022/01/10 18:35:39;;;;;;;;;9.25;8.00;;;;;17.82;55.27;102533.53;5092174;27;46189;-88
